Leyendecker II PSRC Data

Date Time Air Temperature Relative Humidity Dewpoint Windchill Heat Index Wind Speed Wind Dir. Rain Solar Radiation Soil Temperature
2m 2m 3m 3m 10cm
US/Mountain F % F F F MPH deg in MJ/m^2 F
max avg avg
2021-04-08 00:05:00 61.8 7.5 -1.6 61.8 61.8 5.6 6.5 5.3 295.5 306.5 0.00 0.0000000 57.8
2021-04-08 00:10:00 60.9 8.4 0.2 60.9 60.9 3.7 5.3 4.0 282.3 304.5 0.00 0.0000000 57.8
2021-04-08 00:15:00 60.8 8.8 1.2 60.8 60.8 3.7 5.6 3.9 312.9 299.9 0.00 0.0000000 57.7
2021-04-08 00:20:00 60.1 9.4 1.8 60.1 60.1 3.7 5.3 4.0 321.7 315.9 0.00 0.0000000 57.7
2021-04-08 00:25:00 60.4 8.0 -1.2 60.4 60.4 3.8 4.2 3.4 290.9 305.5 0.00 0.0000000 57.7
2021-04-08 00:30:00 61.1 7.3 -2.7 61.1 61.1 1.9 4.2 2.8 259.0 274.3 0.00 0.0000000 57.7
2021-04-08 00:35:00 61.7 7.2 -2.6 61.7 61.7 0.8 4.9 2.2 0.8 256.3 0.00 0.0000000 57.6
2021-04-08 00:40:00 60.6 9.3 2.0 60.6 60.6 1.3 3.0 1.4 34.2 49.8 0.00 0.0000000 57.6
2021-04-08 00:45:00 60.0 8.2 -1.1 60.0 60.0 1.3 1.5 0.9 70.7 101.7 0.00 0.0000000 57.6
2021-04-08 00:50:00 58.6 13.2 8.2 58.6 58.6 1.3 2.4 1.8 94.3 68.8 0.00 0.0000000 57.5
2021-04-08 00:55:00 55.5 11.2 2.1 55.5 55.5 1.5 2.1 1.6 184.4 136.8 0.00 0.0000000 57.5
2021-04-08 01:00:00 57.7 9.4 0.1 57.7 57.7 2.1 2.8 2.1 221.3 202.4 0.00 0.0000000 57.5
2021-04-08 01:05:00 57.5 9.9 1.0 57.5 57.5 1.5 3.3 2.2 248.4 237.6 0.00 0.0000000 57.4
2021-04-08 01:10:00 57.0 10.4 1.7 57.0 57.0 2.8 2.8 1.8 9.5 308.3 0.00 0.0000000 57.4
2021-04-08 01:15:00 55.5 10.3 0.3 55.5 55.5 2.1 3.5 2.8 310.9 332.6 0.00 0.0000000 57.4
2021-04-08 01:20:00 55.3 10.6 0.8 55.3 55.3 2.1 3.3 2.4 261.9 278.7 0.00 0.0000000 57.3
2021-04-08 01:25:00 55.1 9.6 -1.4 55.1 55.1 3.7 4.6 2.4 309.5 278.2 0.00 0.0000000 57.3
2021-04-08 01:30:00 55.4 10.0 -0.4 55.4 55.4 1.3 3.5 1.7 269.0 262.8 0.00 0.0000000 57.3
2021-04-08 01:35:00 53.1 18.4 11.1 53.1 53.1 1.9 2.4 1.5 43.2 56.5 0.00 0.0000000 57.2
2021-04-08 01:40:00 51.4 25.4 17.1 51.4 51.4 0.0 2.8 1.5 51.5 38.3 0.00 0.0000000 57.2
2021-04-08 01:45:00 50.2 21.3 12.0 50.2 50.2 2.1 2.2 0.2 4.4 13.9 0.00 0.0000000 57.1
2021-04-08 01:50:00 49.8 23.1 13.6 49.8 49.8 1.7 2.8 2.2 332.8 344.3 0.00 0.0000000 57.1
2021-04-08 01:55:00 50.2 20.6 11.3 50.2 50.2 2.6 2.8 2.0 295.0 294.6 0.00 0.0000000 57.1
2021-04-08 02:00:00 51.0 21.3 12.7 51.0 51.0 2.6 2.8 2.4 286.0 286.9 0.00 0.0000000 57.1
2021-04-08 02:05:00 52.1 16.1 7.3 52.1 52.1 3.1 3.5 2.8 319.0 308.2 0.00 0.0000000 57.0
2021-04-08 02:10:00 52.3 14.3 4.9 52.3 52.3 3.3 3.5 3.1 319.6 317.2 0.00 0.0000000 57.0
2021-04-08 02:15:00 51.3 23.2 14.9 51.3 51.3 4.7 4.9 3.2 105.4 12.3 0.00 0.0000000 57.0
2021-04-08 02:20:00 48.9 22.4 12.1 48.9 48.9 2.2 4.9 3.2 291.0 95.3 0.00 0.0000000 56.9
2021-04-08 02:25:00 49.0 17.7 6.9 49.0 49.0 0.8 1.9 0.7 130.7 150.4 0.00 0.0000000 56.9
2021-04-08 02:30:00 49.4 19.7 9.6 49.4 49.4 0.0 1.0 0.3 175.8 157.9 0.00 0.0000000 56.9
2021-04-08 02:35:00 49.7 16.9 6.4 49.7 49.7 1.7 1.9 0.6 229.1 229.7 0.00 0.0000000 56.9
2021-04-08 02:40:00 50.9 15.3 5.3 50.9 50.9 3.1 3.5 2.5 223.1 237.0 0.00 0.0000000 56.8
2021-04-08 02:45:00 50.3 16.4 6.3 50.3 50.3 3.0 3.1 2.8 240.2 234.4 0.00 0.0000000 56.8
2021-04-08 02:50:00 50.3 22.0 12.9 50.3 50.3 2.2 3.1 2.7 290.4 256.6 0.00 0.0000000 56.8
2021-04-08 02:55:00 48.4 20.4 9.6 48.4 48.4 2.2 2.8 2.2 316.3 287.5 0.00 0.0000000 56.7
2021-04-08 03:00:00 46.1 26.7 13.7 44.2 46.1 4.2 4.2 2.7 339.5 301.5 0.00 0.0000000 56.7
2021-04-08 03:05:00 46.1 23.4 10.7 44.6 46.1 3.7 4.9 4.0 323.7 334.3 0.00 0.0000000 56.6
2021-04-08 03:10:00 47.8 27.0 15.4 47.8 47.8 1.9 4.4 3.4 39.7 345.7 0.00 0.0000000 56.6
2021-04-08 03:15:00 46.4 31.0 17.4 45.5 46.4 3.1 4.2 2.6 108.2 88.8 0.00 0.0000000 56.6
2021-04-08 03:20:00 45.7 24.8 11.6 45.7 45.7 1.2 3.1 2.2 90.4 103.1 0.00 0.0000000 56.6
2021-04-08 03:25:00 46.1 25.5 12.6 46.1 46.1 2.1 2.1 1.4 86.3 67.9 0.00 0.0000000 56.5
2021-04-08 03:30:00 45.6 27.3 13.7 45.6 45.6 0.8 1.9 0.8 51.2 61.7 0.00 0.0000000 56.5
2021-04-08 03:35:00 44.7 28.4 13.9 44.7 44.7 0.0 1.0 0.3 33.2 43.5 0.00 0.0000000 56.4
2021-04-08 03:40:00 44.0 33.7 17.2 44.0 44.0 0.0 1.5 0.4 78.1 60.2 0.00 0.0000000 56.4
2021-04-08 03:45:00 43.9 30.3 14.7 43.9 43.9 1.2 1.3 0.5 45.5 29.1 0.00 0.0000000 56.4
2021-04-08 03:50:00 44.0 27.7 12.7 44.0 44.0 1.9 2.1 1.0 161.9 100.3 0.00 0.0000000 56.4
2021-04-08 03:55:00 45.2 26.7 12.9 45.2 45.2 1.9 2.4 1.9 163.7 167.4 0.00 0.0000000 56.3
2021-04-08 04:00:00 45.8 22.9 10.0 45.8 45.8 1.0 2.6 1.9 161.8 148.6 0.00 0.0000000 56.3
2021-04-08 04:05:00 45.7 29.7 15.8 45.7 45.7 1.7 1.7 0.7 233.2 195.2 0.00 0.0000000 56.3
2021-04-08 04:10:00 46.0 23.0 10.2 46.0 46.0 2.1 3.1 2.2 224.9 221.1 0.00 0.0000000 56.2
2021-04-08 04:15:00 45.8 23.3 10.3 45.8 45.8 2.8 2.8 2.1 223.6 242.1 0.00 0.0000000 56.2
2021-04-08 04:20:00 45.5 24.0 10.7 45.5 45.5 1.7 2.4 1.5 202.9 216.8 0.00 0.0000000 56.2
2021-04-08 04:25:00 45.1 24.1 10.5 45.1 45.1 1.5 2.1 1.5 227.1 218.4 0.00 0.0000000 56.2
2021-04-08 04:30:00 44.5 24.5 10.3 44.5 44.5 2.2 2.2 1.7 1.3 273.3 0.00 0.0000000 56.1
2021-04-08 04:35:00 44.2 37.9 20.1 44.2 44.2 0.8 2.6 1.4 84.1 43.9 0.00 0.0000000 56.1
2021-04-08 04:40:00 43.7 29.5 13.8 43.7 43.7 0.0 1.3 0.9 48.0 137.0 0.00 0.0000000 56.1
2021-04-08 04:45:00 43.0 28.2 12.2 43.0 43.0 2.2 3.1 2.1 98.0 85.2 0.00 0.0000000 56.0
2021-04-08 04:50:00 42.9 28.2 12.1 42.9 42.9 2.1 3.3 2.2 69.8 92.8 0.00 0.0000000 56.0
2021-04-08 04:55:00 43.2 32.7 15.8 43.2 43.2 1.0 2.2 0.8 49.5 58.1 0.00 0.0000000 56.0
2021-04-08 05:00:00 42.9 30.9 14.2 42.9 42.9 0.8 1.5 0.6 220.1 220.8 0.00 0.0000000 56.0
2021-04-08 05:05:00 43.4 26.6 11.3 43.4 43.4 1.3 1.5 0.6 0.1 352.0 0.00 0.0000000 55.9
2021-04-08 05:10:00 43.7 39.5 20.6 43.7 43.7 0.0 1.5 0.5 107.5 340.0 0.00 0.0000000 55.9
2021-04-08 05:15:00 43.8 26.7 11.8 43.8 43.8 1.5 2.2 1.8 160.4 114.8 0.00 0.0000000 55.9
2021-04-08 05:20:00 44.1 27.7 12.8 44.1 44.1 1.5 2.1 1.5 90.5 153.8 0.00 0.0000000 55.8
2021-04-08 05:25:00 44.1 33.5 17.2 44.1 44.1 2.4 2.6 1.8 341.1 21.6 0.00 0.0000000 55.8
2021-04-08 05:30:00 43.9 28.2 13.0 43.9 43.9 3.0 3.0 1.9 235.8 289.7 0.00 0.0000000 55.8
2021-04-08 05:35:00 44.1 26.8 12.0 44.1 44.1 2.2 3.1 2.5 261.2 254.7 0.00 0.0000000 55.8
2021-04-08 05:40:00 43.8 27.6 12.5 43.8 43.8 1.5 2.2 1.8 276.4 282.9 0.00 0.0000000 55.7
2021-04-08 05:45:00 43.5 26.0 10.8 43.5 43.5 2.1 2.4 2.0 288.0 273.2 0.00 0.0000000 55.7
2021-04-08 05:50:00 42.5 32.6 15.2 40.5 42.5 3.7 3.7 2.5 335.0 314.3 0.00 0.0000000 55.7
2021-04-08 05:55:00 42.2 35.5 16.8 42.2 42.2 2.8 4.0 3.4 6.4 342.8 0.00 0.0000000 55.7
2021-04-08 06:00:00 42.5 33.7 15.9 42.5 42.5 1.7 3.0 2.4 63.2 24.6 0.00 0.0000000 55.7
2021-04-08 06:05:00 42.1 33.5 15.4 42.1 42.1 2.2 2.2 0.5 58.8 84.9 0.00 0.0000000 55.6
2021-04-08 06:10:00 42.2 41.3 20.3 42.2 42.2 1.3 3.3 2.0 136.4 60.2 0.00 0.0000000 55.6
2021-04-08 06:15:00 42.0 39.6 19.2 42.0 42.0 1.5 1.7 1.3 229.4 167.4 0.00 0.0000000 55.6
2021-04-08 06:20:00 43.0 36.5 18.2 43.0 43.0 1.9 2.2 2.0 240.2 246.5 0.00 0.0000000 55.6
2021-04-08 06:25:00 43.4 33.9 16.8 43.4 43.4 2.1 2.4 2.0 301.9 263.6 0.00 0.0000000 55.5
2021-04-08 06:30:00 43.0 33.8 16.4 43.0 43.0 2.1 2.8 2.3 299.4 331.5 0.00 0.0000000 55.5
2021-04-08 06:35:00 42.8 32.2 15.1 42.8 42.8 1.3 2.1 1.6 298.6 280.8 0.00 0.0000000 55.5
2021-04-08 06:40:00 43.0 31.6 14.8 43.0 43.0 0.8 2.2 1.7 237.3 316.4 0.00 0.0000390 55.5
2021-04-08 06:45:00 43.1 30.2 13.9 43.1 43.1 1.3 1.3 0.4 168.1 187.5 0.00 0.0003945 55.5
2021-04-08 06:50:00 43.5 32.8 16.1 42.0 43.5 3.3 3.3 2.0 158.8 152.0 0.00 0.0009536 55.4
2021-04-08 06:55:00 42.4 34.1 16.0 39.9 42.4 4.2 4.2 3.5 93.8 130.0 0.00 0.0016527 55.4
2021-04-08 07:00:00 43.3 29.2 13.3 43.3 43.3 1.7 3.8 2.7 55.3 79.2 0.00 0.0051807 55.4
2021-04-08 07:05:00 43.8 33.5 16.9 43.8 43.8 1.0 1.7 0.9 35.0 40.1 0.00 0.0116795 55.3
2021-04-08 07:10:00 43.6 30.3 14.5 43.6 43.6 1.2 2.6 1.8 6.4 16.0 0.00 0.0056113 55.3
2021-04-08 07:15:00 43.6 31.0 14.9 43.6 43.6 0.0 1.3 0.3 27.7 9.4 0.00 0.0109392 55.3
2021-04-08 07:20:00 43.6 36.8 18.9 43.6 43.6 2.4 2.8 1.9 300.1 356.3 0.00 0.0139594 55.3
2021-04-08 07:25:00 43.6 39.5 20.6 43.6 43.6 2.2 3.1 2.6 327.9 305.2 0.00 0.0320814 55.3
2021-04-08 07:30:00 44.0 34.5 17.7 44.0 44.0 3.0 3.7 2.8 275.2 279.7 0.00 0.0322953 55.2
2021-04-08 07:35:00 45.4 31.5 16.9 45.4 45.4 2.1 3.1 2.5 258.0 252.6 0.00 0.0421382 55.2
2021-04-08 07:40:00 46.8 32.1 18.5 46.8 46.8 2.1 2.1 1.8 320.8 291.6 0.00 0.0446138 55.2
2021-04-08 07:45:00 48.1 25.2 14.1 48.1 48.1 2.2 3.5 2.9 310.5 308.5 0.00 0.0522590 55.2
2021-04-08 07:50:00 48.9 29.4 18.3 48.9 48.9 2.1 3.0 2.4 308.2 334.5 0.00 0.0572716 55.2
2021-04-08 07:55:00 49.9 22.8 13.3 49.9 49.9 2.2 2.6 2.1 262.3 283.2 0.00 0.0622411 55.1
2021-04-08 08:00:00 51.1 17.8 8.7 51.1 51.1 2.8 3.8 2.3 190.6 238.3 0.00 0.0677614 55.1
2021-04-08 08:05:00 51.7 17.5 8.9 51.7 51.7 3.0 3.3 2.8 219.4 201.3 0.00 0.0730107 55.1
2021-04-08 08:10:00 52.6 17.1 9.1 52.6 52.6 1.2 2.8 1.7 192.4 222.2 0.00 0.0783506 55.1
2021-04-08 08:15:00 54.8 18.2 12.3 54.8 54.8 0.0 1.0 0.2 333.4 142.1 0.00 0.0836017 55.1
2021-04-08 08:20:00 55.8 16.5 10.9 55.8 55.8 1.3 2.2 1.6 335.2 358.9 0.00 0.0894627 55.1
2021-04-08 08:25:00 56.1 17.3 12.3 56.1 56.1 3.1 3.3 2.4 308.0 313.2 0.00 0.0948518 55.1
2021-04-08 08:30:00 56.4 16.6 11.5 56.4 56.4 3.0 3.3 2.6 333.6 314.6 0.00 0.1004836 55.1
2021-04-08 08:35:00 57.0 18.6 14.6 57.0 57.0 3.7 3.8 2.8 302.6 311.9 0.00 0.1062747 55.0
2021-04-08 08:40:00 56.7 18.0 13.6 56.7 56.7 3.5 4.9 3.8 327.9 332.9 0.00 0.1118897 55.0
2021-04-08 08:45:00 57.5 16.0 11.6 57.5 57.5 1.2 3.5 2.5 254.4 314.1 0.00 0.1175818 55.0
2021-04-08 08:50:00 59.5 15.6 12.6 59.5 59.5 1.2 2.2 1.1 102.6 51.3 0.00 0.1235043 55.0
2021-04-08 08:55:00 61.1 12.7 9.3 61.1 61.1 0.8 2.1 1.3 332.2 107.9 0.00 0.1287126 55.0
2021-04-08 09:00:00 62.4 12.8 10.4 62.4 62.4 1.7 1.7 1.4 37.3 26.6 0.00 0.1350511 55.0
2021-04-08 09:05:00 62.4 14.1 12.7 62.4 62.4 1.7 2.2 1.7 50.9 52.3 0.00 0.1408016 55.0
2021-04-08 09:10:00 62.5 16.9 16.9 62.5 62.5 2.2 2.4 1.9 66.9 81.2 0.00 0.1464182 55.0
2021-04-08 09:15:00 63.2 12.4 10.5 63.2 63.2 1.7 2.4 1.8 72.1 41.9 0.00 0.1518008 55.0
2021-04-08 09:20:00 63.2 11.8 9.3 63.2 63.2 2.2 2.8 2.2 20.5 29.1 0.00 0.1579170 55.0
2021-04-08 09:25:00 64.3 11.1 8.7 64.3 64.3 2.8 2.8 1.6 40.2 98.4 0.00 0.1633109 55.0
2021-04-08 09:30:00 64.9 11.8 10.6 64.9 64.9 1.7 3.1 2.0 90.5 61.7 0.00 0.1692451 55.0
2021-04-08 09:35:00 65.3 10.2 7.8 65.3 65.3 2.4 4.0 2.5 298.4 8.1 0.00 0.1720181 55.0
2021-04-08 09:40:00 65.2 11.7 10.6 65.2 65.2 4.6 4.9 3.6 341.7 314.3 0.00 0.1777336 55.1
2021-04-08 09:45:00 65.7 9.6 6.7 65.7 65.7 5.8 5.8 4.4 324.9 310.3 0.00 0.1856126 55.1
2021-04-08 09:50:00 66.0 9.6 7.0 66.0 66.0 4.0 6.0 4.9 328.6 325.5 0.00 0.1910827 55.1
2021-04-08 09:55:00 67.2 12.3 13.3 67.2 67.2 4.0 5.5 4.0 345.8 321.3 0.00 0.1966595 55.1
2021-04-08 10:00:00 67.7 9.5 8.0 67.7 67.7 3.8 4.7 3.3 14.7 310.2 0.00 0.2019553 55.1
2021-04-08 10:05:00 68.8 10.2 10.3 68.8 68.8 3.8 6.0 3.8 333.9 311.1 0.00 0.2072185 55.2
2021-04-08 10:10:00 68.8 9.0 7.6 68.8 68.8 2.6 7.1 4.9 282.7 315.3 0.00 0.2115710 55.2
2021-04-08 10:15:00 69.9 9.8 10.3 69.9 69.9 1.0 4.4 2.4 136.5 293.5 0.00 0.2134292 55.2
2021-04-08 10:20:00 70.5 11.0 13.4 70.5 70.5 2.4 4.6 2.8 112.6 87.7 0.00 0.2201723 55.3
2021-04-08 10:25:00 71.6 8.5 8.4 71.6 71.6 3.7 4.9 2.7 2.1 63.3 0.00 0.2269969 55.3
2021-04-08 10:30:00 73.0 14.0 21.0 73.0 73.0 3.5 3.5 1.9 17.9 323.4 0.00 0.2290955 55.3
2021-04-08 10:35:00 72.6 8.9 10.2 72.6 72.6 4.4 8.0 4.2 329.3 333.2 0.00 0.2360004 55.3
2021-04-08 10:40:00 73.3 8.1 8.7 73.3 73.3 5.8 6.3 3.5 319.5 321.2 0.00 0.2406416 55.4
2021-04-08 10:45:00 73.0 7.0 5.2 73.0 73.0 3.8 6.9 5.4 6.0 355.5 0.00 0.2439550 55.4
2021-04-08 10:50:00 73.6 7.2 6.4 73.6 73.6 7.1 7.6 5.9 339.7 356.1 0.00 0.2455653 55.5
2021-04-08 10:55:00 74.2 7.2 6.6 74.2 74.2 8.8 9.4 5.6 1.2 354.3 0.00 0.2513905 55.5
2021-04-08 11:00:00 74.9 7.3 7.6 74.9 74.9 5.1 6.3 4.3 0.1 326.9 0.00 0.2551759 55.5
2021-04-08 11:05:00 74.8 8.0 9.4 74.8 74.8 5.6 7.8 4.6 44.3 5.9 0.00 0.2588526 55.6
2021-04-08 11:10:00 74.7 8.6 11.2 74.7 74.7 1.9 8.7 4.7 78.0 20.4 0.00 0.2624202 55.7
2021-04-08 11:15:00 75.0 6.4 4.8 75.0 75.0 6.2 7.6 4.9 24.8 37.1 0.00 0.2664720 55.7
2021-04-08 11:20:00 75.5 9.5 14.0 75.5 75.5 2.4 7.6 4.4 79.5 49.0 0.00 0.2699317 55.7
2021-04-08 11:25:00 76.4 7.2 8.5 76.4 76.4 7.4 11.0 4.6 284.8 45.4 0.00 0.2731781 55.8
2021-04-08 11:30:00 76.3 6.6 6.3 76.3 76.3 2.8 9.0 5.8 279.7 308.9 0.00 0.2757912 55.9
2021-04-08 11:35:00 77.4 7.9 11.1 77.4 77.4 5.5 7.2 4.8 318.7 335.1 0.00 0.2793688 55.9
2021-04-08 11:40:00 77.7 9.8 16.2 77.7 77.7 4.9 7.4 4.4 314.8 297.3 0.00 0.2823656 56.0
2021-04-08 11:45:00 77.7 6.3 6.4 77.7 77.7 6.2 9.2 5.8 297.3 317.5 0.00 0.2848912 56.0
2021-04-08 11:50:00 78.4 7.5 10.8 78.4 78.4 4.7 5.5 3.3 336.4 357.1 0.00 0.2881993 56.1
2021-04-08 11:55:00 78.9 6.9 9.3 78.9 78.9 4.0 7.4 3.7 304.4 315.6 0.00 0.2906879 56.2
2021-04-08 12:00:00 79.1 6.7 8.6 79.1 79.1 5.3 5.6 3.6 26.7 353.6 0.00 0.2928933 56.2
2021-04-08 12:05:00 79.2 7.7 11.8 79.2 79.2 3.1 6.9 4.1 311.6 31.3 0.00 0.2959515 56.3
2021-04-08 12:10:00 79.9 7.4 11.4 79.9 79.9 4.4 5.8 3.7 88.3 22.8 0.00 0.3023877 56.4
2021-04-08 12:15:00 79.3 6.8 9.1 79.3 79.3 6.2 6.5 3.9 135.8 100.0 0.00 0.2976010 56.4
2021-04-08 12:20:00 79.4 6.5 8.1 79.4 79.4 4.6 7.2 5.0 1.2 59.9 0.00 0.3034863 56.5
2021-04-08 12:25:00 80.2 7.7 12.8 80.2 80.2 2.4 5.8 3.9 128.1 118.5 0.00 0.2964907 56.6
2021-04-08 12:30:00 80.7 7.7 13.1 80.7 80.7 3.5 6.2 3.7 177.2 176.8 0.00 0.3143494 56.6
2021-04-08 12:35:00 80.8 7.0 10.9 80.8 80.8 5.3 8.8 4.7 339.6 285.7 0.00 0.2513463 56.8
2021-04-08 12:40:00 80.5 7.1 11.0 80.5 80.5 8.1 10.1 6.0 248.7 257.9 0.00 0.3031418 56.8
2021-04-08 12:45:00 81.2 7.9 14.0 81.2 81.2 8.7 10.8 4.8 325.1 264.8 0.00 0.3107571 56.9
2021-04-08 12:50:00 82.1 6.8 11.2 82.1 82.1 13.9 16.7 9.5 231.1 275.7 0.00 0.3094750 57.0
2021-04-08 12:55:00 81.6 7.2 12.1 81.6 81.6 7.4 13.9 9.8 245.7 249.0 0.00 0.3103226 57.1
2021-04-08 13:00:00 82.2 7.8 14.4 82.2 82.2 6.7 13.5 8.8 244.7 255.4 0.00 0.3161284 57.1
2021-04-08 13:05:00 82.1 7.3 12.7 82.1 82.1 9.4 14.2 9.4 244.7 243.5 0.00 0.3163654 57.2
2021-04-08 13:10:00 82.1 7.8 14.5 82.1 82.1 13.0 21.0 12.1 283.9 261.4 0.00 0.2813013 57.3
2021-04-08 13:15:00 81.3 7.3 12.2 81.3 81.3 11.3 14.0 9.9 265.6 259.6 0.00 0.3132921 57.4
2021-04-08 13:20:00 82.6 7.4 13.7 82.6 82.6 5.8 14.4 9.0 270.2 254.1 0.00 0.3047653 57.4
2021-04-08 13:25:00 82.2 8.2 15.6 82.2 82.2 10.5 11.0 8.5 229.0 254.7 0.00 0.2995537 57.5
2021-04-08 13:30:00 83.4 6.7 11.7 83.4 83.4 9.2 12.4 8.5 244.3 254.2 0.00 0.2958141 57.6
2021-04-08 13:35:00 82.2 8.0 15.1 82.2 82.2 8.3 18.1 11.2 238.1 239.4 0.00 0.2906704 57.7
2021-04-08 13:40:00 82.5 7.5 13.9 82.5 82.5 10.1 16.7 10.7 233.7 237.9 0.00 0.3118714 57.7
2021-04-08 13:45:00 81.9 7.0 11.9 81.9 81.9 10.3 17.6 11.2 256.6 254.3 0.00 0.3077103 57.8
2021-04-08 13:50:00 82.8 8.6 17.0 82.8 82.8 8.0 24.0 11.8 277.0 262.3 0.00 0.3255213 57.9
2021-04-08 13:55:00 82.4 8.0 15.2 82.4 82.4 7.8 13.1 8.7 279.0 261.3 0.00 0.3042032 57.9
2021-04-08 14:00:00 82.5 7.7 14.5 82.5 82.5 7.1 13.7 7.6 250.2 237.6 0.00 0.2807201 58.0
2021-04-08 14:05:00 82.8 7.7 14.6 82.8 82.8 8.8 14.0 8.6 268.5 257.8 0.00 0.3092013 58.1
2021-04-08 14:10:00 82.9 6.9 12.1 82.9 82.9 6.2 16.2 8.9 265.3 233.0 0.00 0.2556985 58.1
2021-04-08 14:15:00 82.7 6.9 12.1 82.7 82.7 13.5 17.8 12.3 256.9 256.0 0.00 0.2914051 58.2
2021-04-08 14:20:00 83.0 6.9 12.1 83.0 83.0 14.2 17.6 11.8 305.4 287.3 0.00 0.2626066 58.3
2021-04-08 14:25:00 82.9 7.8 14.9 82.9 82.9 16.9 23.2 11.1 226.5 245.7 0.00 0.2216340 58.3
2021-04-08 14:30:00 82.8 6.9 12.1 82.8 82.8 9.9 17.8 12.2 252.3 256.4 0.00 0.2720014 58.4
2021-04-08 14:35:00 83.8 8.3 17.0 83.8 83.8 7.2 18.9 11.0 215.6 253.5 0.00 0.2884338 58.4
2021-04-08 14:40:00 85.2 6.5 12.3 85.2 85.2 21.2 21.2 12.7 272.0 265.9 0.00 0.2883983 58.5
2021-04-08 14:45:00 84.3 7.5 15.0 84.3 84.3 6.3 15.1 9.1 210.7 257.5 0.00 0.2950780 58.6
2021-04-08 14:50:00 84.3 7.2 14.3 84.3 84.3 7.1 18.5 10.1 284.2 239.5 0.00 0.2804507 58.6
2021-04-08 14:55:00 84.2 7.1 13.9 84.2 84.2 6.3 15.6 11.5 277.8 268.2 0.00 0.2095881 58.7
2021-04-08 15:00:00 84.5 7.0 13.5 84.5 84.5 11.0 13.7 9.4 250.9 254.6 0.00 0.2507056 58.7
2021-04-08 15:05:00 84.5 6.8 12.8 84.5 84.5 9.9 18.3 12.7 245.2 268.3 0.00 0.2106101 58.7
2021-04-08 15:10:00 83.9 6.7 12.3 83.9 83.9 11.2 19.4 12.9 309.6 254.2 0.00 0.1864452 58.8
2021-04-08 15:15:00 83.6 6.5 11.2 83.6 83.6 19.0 19.0 11.6 281.6 279.0 0.00 0.1764869 58.9
2021-04-08 15:20:00 83.2 6.3 10.3 83.2 83.2 18.7 21.2 14.5 303.4 260.4 0.00 0.1661676 58.9
2021-04-08 15:25:00 84.2 6.2 10.8 84.2 84.2 9.7 19.6 11.2 255.2 260.1 0.00 0.2228456 58.9
2021-04-08 15:30:00 84.1 5.7 8.9 84.1 84.1 20.1 21.0 12.9 245.0 267.8 0.00 0.2105241 59.0
2021-04-08 15:35:00 83.9 6.8 12.5 83.9 83.9 9.6 18.5 13.5 298.6 275.8 0.00 0.2117275 59.0
2021-04-08 15:40:00 84.8 6.6 12.5 84.8 84.8 6.9 16.5 10.9 268.2 269.9 0.00 0.2540783 59.0
2021-04-08 15:45:00 85.6 6.0 11.2 85.6 85.6 15.3 22.3 12.7 287.1 279.0 0.00 0.2732139 59.1
2021-04-08 15:50:00 84.9 6.3 11.7 84.9 84.9 10.5 16.7 12.3 283.6 268.2 0.00 0.2535169 59.1
2021-04-08 15:55:00 84.8 6.3 11.5 84.8 84.8 13.9 19.2 10.4 296.6 279.4 0.00 0.2104801 59.1
2021-04-08 16:00:00 85.4 6.4 12.3 85.4 85.4 12.2 20.6 12.4 291.0 280.6 0.00 0.2303543 59.2
2021-04-08 16:05:00 84.8 6.4 11.9 84.8 84.8 7.6 19.0 12.3 300.7 267.4 0.00 0.1503230 59.2
2021-04-08 16:10:00 85.1 5.9 10.1 85.1 85.1 13.3 19.8 12.6 253.7 259.0 0.00 0.1693551 59.2
2021-04-08 16:15:00 84.2 5.8 9.1 84.2 84.2 11.0 22.4 13.4 235.0 254.0 0.00 0.1211804 59.2
2021-04-08 16:20:00 84.1 5.8 9.3 84.1 84.1 11.3 14.9 10.3 281.2 260.0 0.00 0.1267812 59.2
2021-04-08 16:25:00 84.9 6.0 10.5 84.9 84.9 10.6 19.2 10.8 281.9 263.5 0.00 0.1987251 59.3
2021-04-08 16:30:00 84.5 5.9 10.0 84.5 84.5 17.6 21.0 12.9 279.5 272.9 0.00 0.1294108 59.3
2021-04-08 16:35:00 83.9 6.3 10.7 83.9 83.9 10.8 23.9 15.3 239.9 269.4 0.00 0.1454273 59.3
2021-04-08 16:40:00 84.3 5.9 9.6 84.3 84.3 15.1 19.6 12.4 261.4 279.7 0.00 0.1489580 59.3
2021-04-08 16:45:00 84.9 6.3 11.4 84.9 84.9 13.3 18.5 10.6 292.5 266.8 0.00 0.1512608 59.3
2021-04-08 16:50:00 84.7 5.9 10.1 84.7 84.7 13.3 16.2 11.3 282.5 272.4 0.00 0.1267677 59.3
2021-04-08 16:55:00 84.3 6.0 10.1 84.3 84.3 19.0 19.0 12.9 257.2 253.3 0.00 0.1511641 59.4
2021-04-08 17:00:00 84.5 6.1 10.7 84.5 84.5 19.0 19.2 13.9 284.2 268.7 0.00 0.1680820 59.4
2021-04-08 17:05:00 84.9 6.0 10.5 84.9 84.9 11.7 21.4 13.1 282.4 273.6 0.00 0.1717039 59.4
2021-04-08 17:10:00 84.7 5.9 10.1 84.7 84.7 16.5 23.5 13.5 294.4 279.2 0.00 0.1579829 59.4
2021-04-08 17:15:00 84.0 6.3 10.9 84.0 84.0 16.7 20.8 16.7 275.5 266.7 0.00 0.1265480 59.4
2021-04-08 17:20:00 84.3 6.6 12.2 84.3 84.3 12.2 18.7 12.6 296.8 277.6 0.00 0.1348701 59.4
2021-04-08 17:25:00 84.3 6.6 12.3 84.3 84.3 10.3 20.3 14.4 281.6 277.2 0.00 0.1410033 59.4
2021-04-08 17:30:00 84.4 6.1 10.5 84.4 84.4 11.2 19.6 13.0 280.6 271.9 0.00 0.1321271 59.4
2021-04-08 17:35:00 84.2 6.4 11.3 84.2 84.2 11.9 18.1 12.7 272.2 265.0 0.00 0.1228799 59.4
2021-04-08 17:40:00 84.3 6.2 10.7 84.3 84.3 13.7 18.1 11.8 288.9 261.4 0.00 0.1162468 59.4
2021-04-08 17:45:00 83.9 6.4 11.1 83.9 83.9 14.6 17.8 13.3 254.5 271.8 0.00 0.1116443 59.4
2021-04-08 17:50:00 83.6 6.3 10.7 83.6 83.6 18.5 21.2 15.1 247.4 270.2 0.00 0.1042232 59.4
2021-04-08 17:55:00 83.6 6.0 9.7 83.6 83.6 16.0 18.3 13.3 243.8 262.2 0.00 0.0987314 59.4
2021-04-08 18:00:00 83.5 6.0 9.7 83.5 83.5 12.8 16.4 11.9 295.4 272.7 0.00 0.0925167 59.4
2021-04-08 18:05:00 83.6 5.6 8.0 83.6 83.6 13.9 19.2 13.9 302.6 276.6 0.00 0.0879985 59.4
2021-04-08 18:10:00 83.9 5.8 8.9 83.9 83.9 9.7 14.0 9.5 285.1 274.9 0.00 0.0844983 59.4
2021-04-08 18:15:00 83.5 5.6 8.1 83.5 83.5 10.1 19.2 12.7 244.4 263.2 0.00 0.0810776 59.4
2021-04-08 18:20:00 83.4 5.4 6.9 83.4 83.4 9.7 21.7 12.5 251.8 270.0 0.00 0.0754573 59.4
2021-04-08 18:25:00 83.4 5.0 5.3 83.4 83.4 15.5 20.5 13.0 249.2 277.7 0.00 0.0672802 59.4
2021-04-08 18:30:00 83.0 5.4 6.9 83.0 83.0 7.8 15.6 11.5 287.8 277.0 0.00 0.0587866 59.4
2021-04-08 18:35:00 82.8 5.3 6.2 82.8 82.8 14.6 20.5 12.8 277.4 278.5 0.00 0.0575461 59.4
2021-04-08 18:40:00 82.8 5.2 5.8 82.8 82.8 14.4 19.0 14.0 259.3 276.9 0.00 0.0516558 59.3
2021-04-08 18:45:00 82.5 5.5 6.7 82.5 82.5 7.6 18.7 12.1 267.1 278.0 0.00 0.0449844 59.3
2021-04-08 18:50:00 82.4 5.1 5.2 82.4 82.4 11.0 19.6 11.6 272.3 277.0 0.00 0.0393472 59.3
2021-04-08 18:55:00 82.2 5.3 5.8 82.2 82.2 13.1 18.7 13.6 268.2 270.1 0.00 0.0334522 59.3
2021-04-08 19:00:00 82.1 5.4 6.0 82.1 82.1 14.4 17.4 12.7 288.7 277.1 0.00 0.0287535 59.3
2021-04-08 19:05:00 81.8 5.5 6.3 81.8 81.8 12.2 15.1 10.5 282.1 274.9 0.00 0.0237015 59.3
2021-04-08 19:10:00 81.6 5.6 6.5 81.6 81.6 11.5 19.0 11.5 272.8 271.6 0.00 0.0182347 59.3
2021-04-08 19:15:00 81.4 5.8 7.1 81.4 81.4 11.3 18.1 13.4 295.2 271.2 0.00 0.0122954 59.3
2021-04-08 19:20:00 81.0 5.7 6.4 81.0 81.0 13.7 15.3 9.5 271.1 279.6 0.00 0.0057390 59.3
2021-04-08 19:25:00 80.5 5.8 6.6 80.5 80.5 12.2 15.3 10.1 276.8 283.3 0.00 0.0027591 59.3
2021-04-08 19:30:00 80.3 6.0 7.1 80.3 80.3 9.0 21.5 11.1 266.5 285.9 0.00 0.0012328 59.2
2021-04-08 19:35:00 80.1 6.0 7.2 80.1 80.1 8.7 13.7 9.5 286.9 276.3 0.00 0.0001603 59.2
2021-04-08 19:40:00 79.9 6.2 7.6 79.9 79.9 5.3 14.2 9.6 284.3 285.0 0.00 0.0000000 59.2
2021-04-08 19:45:00 79.4 6.0 6.7 79.4 79.4 9.4 13.1 8.7 292.8 276.1 0.00 0.0000000 59.2
2021-04-08 19:50:00 79.4 6.4 7.9 79.4 79.4 7.8 13.7 9.9 253.3 284.2 0.00 0.0000000 59.1
2021-04-08 19:55:00 79.1 6.2 7.1 79.1 79.1 8.8 16.2 9.9 287.0 277.8 0.00 0.0000000 59.1
2021-04-08 20:00:00 79.0 6.5 7.8 79.0 79.0 6.5 14.4 9.2 275.0 279.7 0.00 0.0000000 59.1
2021-04-08 20:05:00 78.5 6.6 7.8 78.5 78.5 7.2 13.0 8.3 323.1 281.3 0.00 0.0000000 59.1
2021-04-08 20:10:00 78.1 6.4 7.1 78.1 78.1 8.7 11.0 8.2 273.5 281.4 0.00 0.0000000 59.1
2021-04-08 20:15:00 77.7 6.8 8.2 77.7 77.7 8.0 10.1 7.2 278.4 281.9 0.00 0.0000000 59.1
2021-04-08 20:20:00 77.6 6.8 7.8 77.6 77.6 4.0 11.2 7.2 270.5 278.2 0.00 0.0000000 59.0
2021-04-08 20:25:00 77.1 7.1 8.4 77.1 77.1 6.9 9.4 6.0 261.5 272.0 0.00 0.0000000 59.0
2021-04-08 20:30:00 76.6 7.1 8.1 76.6 76.6 6.3 8.0 6.1 257.9 271.8 0.00 0.0000000 59.0
2021-04-08 20:35:00 76.5 7.2 8.5 76.5 76.5 4.7 8.3 6.2 272.9 274.3 0.00 0.0000000 59.0
2021-04-08 20:40:00 75.9 7.6 9.2 75.9 75.9 6.2 6.7 4.7 305.8 277.6 0.00 0.0000000 59.0
2021-04-08 20:45:00 75.7 7.8 9.7 75.7 75.7 3.1 7.8 5.4 322.3 289.5 0.00 0.0000000 58.9
2021-04-08 20:50:00 74.9 8.0 9.6 74.9 74.9 3.3 6.3 4.2 286.7 289.7 0.00 0.0000000 58.9
2021-04-08 20:55:00 74.3 8.6 10.8 74.3 74.3 3.7 5.1 3.7 312.5 291.4 0.00 0.0000000 58.9
2021-04-08 21:00:00 73.9 8.8 11.0 73.9 73.9 3.0 6.3 4.3 268.9 292.3 0.00 0.0000000 58.9
2021-04-08 21:05:00 73.7 9.1 11.6 73.7 73.7 2.8 7.6 4.6 276.3 282.2 0.00 0.0000000 58.8
2021-04-08 21:10:00 73.4 8.9 11.0 73.4 73.4 4.0 6.2 4.3 279.9 282.7 0.00 0.0000000 58.8
2021-04-08 21:15:00 73.1 8.9 10.6 73.1 73.1 5.5 5.8 3.8 290.1 275.1 0.00 0.0000000 58.8
2021-04-08 21:20:00 73.3 8.8 10.5 73.3 73.3 3.8 6.7 4.3 257.0 269.1 0.00 0.0000000 58.8
2021-04-08 21:25:00 72.7 9.4 11.6 72.7 72.7 2.6 5.8 3.7 284.3 272.6 0.00 0.0000000 58.7
2021-04-08 21:30:00 72.3 9.2 10.9 72.3 72.3 4.6 4.9 3.6 270.3 268.0 0.00 0.0000000 58.7
2021-04-08 21:35:00 72.2 9.2 10.7 72.2 72.2 2.6 5.1 3.6 248.5 257.7 0.00 0.0000000 58.7
2021-04-08 21:40:00 71.7 9.5 11.0 71.7 71.7 4.2 5.3 3.4 260.2 256.3 0.00 0.0000000 58.6
2021-04-08 21:45:00 71.4 9.6 10.9 71.4 71.4 3.3 4.9 3.5 287.6 254.9 0.00 0.0000000 58.6
2021-04-08 21:50:00 70.6 10.1 11.6 70.6 70.6 2.4 4.0 3.0 290.6 276.7 0.00 0.0000000 58.6
2021-04-08 21:55:00 69.1 12.0 14.2 69.1 69.1 3.5 3.5 2.9 304.7 314.1 0.00 0.0000000 58.6
2021-04-08 22:00:00 67.8 13.5 15.9 67.8 67.8 1.5 3.8 2.8 282.0 306.2 0.00 0.0000000 58.5
2021-04-08 22:05:00 67.5 11.3 11.6 67.5 67.5 2.1 3.0 2.1 208.2 230.6 0.00 0.0000000 58.5
2021-04-08 22:10:00 67.3 11.4 11.8 67.3 67.3 2.1 3.3 2.3 196.9 203.6 0.00 0.0000000 58.5
2021-04-08 22:15:00 67.3 12.0 13.0 67.3 67.3 1.5 1.9 1.7 213.3 190.7 0.00 0.0000000 58.4
2021-04-08 22:20:00 66.3 14.9 17.0 66.3 66.3 3.0 3.1 2.0 190.7 182.7 0.00 0.0000000 58.4
2021-04-08 22:25:00 65.0 14.6 15.6 65.0 65.0 2.1 3.0 1.9 184.7 186.6 0.00 0.0000000 58.4
2021-04-08 22:30:00 64.0 14.6 14.8 64.0 64.0 1.5 2.1 1.6 109.6 142.4 0.00 0.0000000 58.4
2021-04-08 22:35:00 63.4 14.6 14.3 63.4 63.4 1.5 2.2 1.8 230.9 178.1 0.00 0.0000000 58.3
2021-04-08 22:40:00 64.1 14.4 14.5 64.1 64.1 1.5 4.4 1.7 239.8 229.4 0.00 0.0000023 58.3
2021-04-08 22:45:00 64.1 14.6 14.9 64.1 64.1 3.7 3.8 2.5 346.2 336.7 0.00 0.0000000 58.3
2021-04-08 22:50:00 63.8 15.6 16.1 63.8 63.8 2.4 3.7 2.7 39.8 22.0 0.00 0.0000000 58.2
2021-04-08 22:55:00 63.5 14.6 14.3 63.5 63.5 2.4 2.4 1.5 341.5 347.3 0.00 0.0000000 58.2
2021-04-08 23:00:00 64.0 14.7 15.0 64.0 64.0 3.1 3.1 1.9 9.5 351.1 0.00 0.0000000 58.2
2021-04-08 23:05:00 65.3 13.8 14.5 65.3 65.3 3.0 5.5 2.8 1.0 352.5 0.00 0.0000123 58.1
2021-04-08 23:10:00 64.2 14.5 14.8 64.2 64.2 2.1 3.1 2.0 345.1 25.5 0.00 0.0000000 58.1
2021-04-08 23:15:00 63.7 14.3 14.1 63.7 63.7 5.5 6.0 2.6 296.9 336.6 0.00 0.0000000 58.1
2021-04-08 23:20:00 65.2 13.8 14.5 65.2 65.2 2.2 5.5 3.6 344.6 319.9 0.00 0.0000000 58.0
2021-04-08 23:25:00 66.1 12.8 13.4 66.1 66.1 4.6 5.8 3.9 309.4 300.5 0.00 0.0000000 58.0
2021-04-08 23:30:00 66.3 12.9 13.8 66.3 66.3 6.0 6.0 3.6 316.0 309.7 0.00 0.0000000 58.0
2021-04-08 23:35:00 66.3 13.0 13.9 66.3 66.3 3.3 5.6 4.0 274.7 306.9 0.00 0.0000000 58.0
2021-04-08 23:40:00 66.1 12.9 13.6 66.1 66.1 4.4 6.9 4.0 280.5 291.6 0.00 0.0000000 57.9
2021-04-08 23:45:00 66.2 12.1 12.3 66.2 66.2 4.0 5.1 4.0 301.4 281.2 0.00 0.0000000 57.9
2021-04-08 23:50:00 66.1 12.2 12.3 66.1 66.1 2.2 5.6 3.9 268.5 279.6 0.00 0.0000000 57.9
2021-04-08 23:55:00 65.8 12.4 12.6 65.8 65.8 3.7 4.9 3.7 287.4 275.6 0.00 0.0000000 57.8
2021-04-09 00:00:00 65.1 13.3 13.6 65.1 65.1 3.0 3.7 2.8 343.3 307.3 0.00 0.0000000 57.8

Data is courtesy of the NM Climate Center. DO NOT USE IN LEGAL PROCEEDINGS.